createdAt,value
2018-03-20T00:02:03.308Z,89.50
2018-03-20T00:04:30.795Z,89.50
2018-03-20T00:06:58.448Z,89.60
2018-03-20T00:09:25.957Z,89.80
2018-03-20T00:11:53.465Z,89.30
2018-03-20T00:14:21.072Z,89.90
2018-03-20T00:16:48.647Z,90.10
2018-03-20T00:19:16.165Z,89.90
2018-03-20T00:21:44.107Z,89.50
2018-03-20T00:24:11.600Z,89.50
2018-03-20T00:26:39.488Z,89.30
2018-03-20T00:29:07.021Z,89.20
2018-03-20T00:31:35.102Z,90.00
2018-03-20T00:34:02.639Z,90.00
2018-03-20T00:36:30.229Z,89.90
2018-03-20T00:38:57.783Z,90.20
2018-03-20T00:41:25.272Z,90.30
2018-03-20T00:43:52.859Z,90.20
2018-03-20T00:46:21.427Z,90.30
2018-03-20T00:48:48.931Z,90.30
2018-03-20T00:51:16.960Z,89.10
2018-03-20T00:53:44.520Z,89.10
2018-03-20T00:56:14.055Z,89.30
2018-03-20T00:58:42.008Z,89.60
2018-03-20T01:01:10.367Z,89.30
2018-03-20T01:03:37.874Z,89.30
2018-03-20T01:06:05.368Z,89.00
2018-03-20T01:08:32.883Z,88.90
2018-03-20T01:11:00.779Z,88.90
2018-03-20T01:13:28.737Z,88.70
2018-03-20T01:15:56.264Z,88.70
2018-03-20T01:18:24.184Z,88.00
2018-03-20T01:20:51.701Z,88.00
2018-03-20T01:23:19.424Z,88.20
2018-03-20T01:25:47.248Z,88.40
2018-03-20T01:28:14.955Z,88.20
2018-03-20T01:30:42.754Z,87.00
2018-03-20T01:33:10.759Z,85.60
2018-03-20T01:35:38.353Z,85.60
2018-03-20T01:38:06.028Z,85.20
2018-03-20T01:40:34.014Z,83.40
2018-03-20T01:43:01.575Z,83.40
2018-03-20T01:45:29.244Z,82.20
2018-03-20T01:47:56.894Z,81.60
2018-03-20T01:50:24.560Z,82.10
2018-03-20T01:53:04.123Z,82.10
2018-03-20T01:55:31.781Z,81.80
2018-03-20T01:57:59.404Z,81.90
2018-03-20T02:00:27.078Z,81.80
2018-03-20T02:02:54.778Z,81.90
2018-03-20T02:05:22.295Z,81.80
2018-03-20T02:07:50.331Z,81.40
2018-03-20T02:10:17.834Z,81.40
2018-03-20T02:12:45.441Z,81.20
2018-03-20T02:15:13.030Z,80.90
2018-03-20T02:17:41.079Z,79.90
2018-03-20T02:20:08.663Z,79.90
2018-03-20T02:22:36.181Z,79.10
2018-03-20T02:25:03.872Z,79.20
2018-03-20T02:27:31.532Z,79.00
2018-03-20T02:29:59.062Z,79.10
2018-03-20T02:32:26.595Z,79.30
2018-03-20T02:34:54.079Z,79.40
2018-03-20T02:37:21.567Z,79.20
2018-03-20T02:39:50.441Z,79.40
2018-03-20T02:42:17.940Z,79.40
2018-03-20T02:44:45.431Z,80.10
2018-03-20T02:47:12.951Z,80.10
2018-03-20T02:49:40.447Z,80.00
2018-03-20T02:52:07.936Z,80.00
2018-03-20T02:54:35.444Z,80.60
2018-03-20T02:57:02.963Z,81.80
2018-03-20T02:59:30.848Z,84.60
2018-03-20T03:01:58.387Z,84.60
2018-03-20T03:04:26.282Z,91.50
2018-03-20T03:06:53.868Z,91.50
2018-03-20T03:09:21.364Z,91.90
2018-03-20T03:11:49.269Z,92.40
2018-03-20T03:14:16.800Z,92.40
2018-03-20T03:16:44.689Z,92.70
2018-03-20T03:19:12.185Z,92.70
2018-03-20T03:21:39.733Z,93.20
2018-03-20T03:24:07.232Z,93.80
2018-03-20T03:26:35.134Z,93.80
2018-03-20T03:29:02.636Z,93.80
2018-03-20T03:31:30.141Z,94.10
2018-03-20T03:33:57.672Z,94.30
2018-03-20T03:36:25.578Z,94.80
2018-03-20T03:38:53.108Z,94.80
2018-03-20T03:41:20.645Z,94.70
2018-03-20T03:43:48.543Z,94.00
2018-03-20T03:46:16.039Z,94.00
2018-03-20T03:48:43.559Z,94.20
2018-03-20T03:51:11.093Z,94.30
2018-03-20T03:53:38.983Z,94.50
2018-03-20T03:56:06.483Z,94.60
2018-03-20T03:58:34.007Z,94.60
2018-03-20T04:01:01.499Z,94.60
2018-03-20T04:03:29.019Z,94.50
2018-03-20T04:05:56.511Z,94.50
2018-03-20T04:08:24.006Z,94.40
2018-03-20T04:10:51.940Z,94.20
2018-03-20T04:13:19.436Z,94.20
2018-03-20T04:15:47.332Z,94.40
2018-03-20T04:18:14.869Z,94.40
2018-03-20T04:20:42.376Z,94.40
2018-03-20T04:23:09.916Z,94.40
2018-03-20T04:25:37.415Z,94.70
2018-03-20T04:28:05.332Z,95.20
2018-03-20T04:30:32.856Z,95.30
2018-03-20T04:33:00.769Z,95.80
2018-03-20T04:35:28.264Z,95.80
2018-03-20T04:37:56.179Z,96.20
2018-03-20T04:40:23.685Z,96.20
2018-03-20T04:42:51.203Z,96.50
2018-03-20T04:45:18.712Z,96.40
2018-03-20T04:47:46.651Z,96.70
2018-03-20T04:50:14.145Z,96.70
2018-03-20T04:52:42.031Z,95.80
2018-03-20T04:55:09.557Z,95.80
2018-03-20T04:57:37.443Z,95.80
2018-03-20T05:00:04.939Z,95.80
2018-03-20T05:02:32.460Z,95.70
2018-03-20T05:04:59.972Z,95.90
2018-03-20T05:07:27.489Z,95.90
2018-03-20T05:09:55.031Z,96.30
2018-03-20T05:12:22.518Z,96.60
2018-03-20T05:14:50.021Z,96.80
2018-03-20T05:17:17.947Z,97.00
2018-03-20T05:22:52.015Z,97.00
2018-03-20T05:25:19.907Z,97.00
2018-03-20T05:27:47.408Z,97.00
2018-03-20T05:30:14.923Z,97.00
2018-03-20T05:32:42.441Z,97.00
2018-03-20T05:35:09.960Z,97.00
2018-03-20T05:37:37.479Z,97.00
2018-03-20T05:40:04.972Z,97.00
2018-03-20T05:42:34.415Z,97.00
2018-03-20T05:45:01.931Z,97.00
2018-03-20T05:47:35.094Z,96.50
2018-03-20T05:53:13.576Z,95.10
2018-03-20T05:55:41.235Z,95.00
2018-03-20T05:58:08.749Z,95.20
2018-03-20T06:00:36.649Z,95.30
2018-03-20T06:03:04.822Z,95.30
2018-03-20T06:05:32.320Z,95.10
2018-03-20T06:07:59.830Z,95.20
2018-03-20T06:10:27.339Z,95.10
2018-03-20T06:12:55.787Z,95.20
2018-03-20T06:15:23.321Z,95.00
2018-03-20T06:17:50.843Z,94.60
2018-03-20T06:20:18.748Z,95.00
2018-03-20T06:22:46.255Z,94.80
2018-03-20T06:25:13.779Z,95.20
2018-03-20T06:27:41.324Z,95.40
2018-03-20T06:30:09.187Z,95.50
2018-03-20T06:32:36.699Z,95.50
2018-03-20T06:35:04.200Z,95.50
2018-03-20T06:37:31.717Z,95.50
2018-03-20T06:39:59.235Z,95.50
2018-03-20T06:42:26.744Z,95.40
2018-03-20T06:44:54.632Z,95.50
2018-03-20T06:47:22.127Z,95.50
2018-03-20T06:49:49.617Z,95.40
2018-03-20T06:52:17.519Z,95.60
2018-03-20T06:54:45.035Z,95.60
2018-03-20T06:57:12.969Z,95.70
2018-03-20T06:59:40.461Z,95.80
2018-03-20T07:02:08.396Z,95.90
2018-03-20T07:04:36.134Z,95.90
2018-03-20T07:07:03.618Z,96.00
2018-03-20T07:09:31.195Z,96.10
2018-03-20T07:11:58.789Z,96.10
2018-03-20T07:14:26.281Z,96.20
2018-03-20T07:16:53.767Z,96.30
2018-03-20T07:19:21.255Z,96.00
2018-03-20T07:21:49.152Z,94.90
2018-03-20T07:24:16.647Z,94.90
2018-03-20T07:26:44.137Z,94.70
2018-03-20T07:29:12.054Z,93.00
2018-03-20T07:31:39.559Z,93.00
2018-03-20T07:34:07.467Z,91.20
2018-03-20T07:36:34.969Z,91.20
2018-03-20T07:39:02.465Z,90.00
2018-03-20T07:41:29.972Z,89.60
2018-03-20T07:43:57.516Z,89.30
2018-03-20T07:46:25.009Z,89.00
2018-03-20T07:48:52.932Z,88.20
2018-03-20T07:51:20.428Z,88.20
2018-03-20T07:53:48.315Z,87.70
2018-03-20T07:56:15.827Z,87.70
2018-03-20T07:58:43.318Z,87.60
2018-03-20T08:01:11.212Z,86.50
2018-03-20T08:03:38.717Z,86.40
2018-03-20T08:06:06.224Z,85.70
2018-03-20T08:08:33.711Z,85.30
2018-03-20T08:11:01.222Z,85.10
2018-03-20T08:13:28.712Z,84.70
2018-03-20T08:15:56.200Z,84.60
2018-03-20T08:18:23.694Z,83.90
2018-03-20T08:20:51.192Z,83.80
2018-03-20T08:23:18.703Z,83.50
2018-03-20T08:25:46.220Z,83.20
2018-03-20T08:28:13.707Z,82.80
2018-03-20T08:30:41.587Z,81.60
2018-03-20T08:33:09.083Z,81.60
2018-03-20T08:35:36.583Z,80.70
2018-03-20T08:38:04.492Z,80.80
2018-03-20T08:40:31.991Z,80.80
2018-03-20T08:42:59.922Z,78.60
2018-03-20T08:45:27.439Z,78.60
2018-03-20T08:47:54.937Z,77.80
2018-03-20T08:50:22.426Z,76.80
2018-03-20T08:52:50.025Z,75.30
2018-03-20T08:55:17.476Z,74.80
2018-03-20T08:57:45.031Z,74.70
2018-03-20T09:00:12.565Z,74.80
2018-03-20T09:02:40.062Z,74.70
2018-03-20T09:05:07.565Z,73.60
2018-03-20T09:07:35.051Z,72.70
2018-03-20T09:10:02.949Z,73.40
2018-03-20T09:12:30.512Z,73.40
2018-03-20T09:14:57.952Z,71.30
2018-03-20T09:17:25.443Z,69.90
2018-03-20T09:19:52.941Z,71.20
2018-03-20T09:22:20.465Z,69.90
2018-03-20T09:24:48.755Z,69.00
2018-03-20T09:27:16.255Z,68.20
2018-03-20T09:29:43.759Z,67.80
2018-03-20T09:32:11.292Z,68.10
2018-03-20T09:34:38.791Z,67.80
2018-03-20T09:37:06.270Z,66.30
2018-03-20T09:39:34.164Z,66.30
2018-03-20T09:42:01.680Z,66.30
2018-03-20T09:44:29.584Z,67.20
2018-03-20T09:46:57.078Z,67.20
2018-03-20T09:49:24.591Z,67.10
2018-03-20T09:51:52.085Z,66.30
2018-03-20T09:54:19.569Z,65.40
2018-03-20T09:56:47.491Z,64.30
2018-03-20T09:59:15.080Z,64.30
2018-03-20T10:01:42.597Z,64.30
2018-03-20T10:04:10.111Z,63.90
2018-03-20T10:06:38.070Z,63.10
2018-03-20T10:09:06.004Z,63.40
2018-03-20T10:11:33.534Z,63.40
2018-03-20T10:14:01.074Z,63.00
2018-03-20T10:16:28.980Z,62.60
2018-03-20T10:18:56.496Z,62.60
2018-03-20T10:21:24.379Z,62.40
2018-03-20T10:23:51.903Z,62.40
2018-03-20T10:26:19.456Z,62.80
2018-03-20T10:28:46.911Z,62.40
2018-03-20T10:31:14.423Z,62.80
2018-03-20T10:33:41.904Z,62.10
2018-03-20T10:36:09.463Z,61.20
2018-03-20T10:38:36.967Z,60.70
2018-03-20T10:41:04.871Z,59.80
2018-03-20T10:43:32.371Z,59.80
2018-03-20T10:45:59.968Z,59.60
2018-03-20T10:48:27.491Z,59.40
2018-03-20T10:50:54.985Z,59.10
2018-03-20T10:53:22.472Z,59.10
2018-03-20T10:55:49.967Z,59.10
2018-03-20T10:58:17.455Z,58.50
2018-03-20T11:00:49.927Z,58.00
2018-03-20T11:03:17.427Z,58.10
2018-03-20T11:05:44.956Z,58.00
2018-03-20T11:08:12.444Z,58.20
2018-03-20T11:10:39.936Z,58.20
2018-03-20T11:13:07.439Z,58.50
2018-03-20T11:15:35.334Z,57.10
2018-03-20T11:18:02.853Z,57.10
2018-03-20T11:20:30.351Z,56.80
2018-03-20T11:22:57.859Z,57.40
2018-03-20T11:25:25.373Z,57.20
2018-03-20T11:27:52.871Z,56.70
2018-03-20T11:30:20.387Z,56.90
2018-03-20T11:32:47.883Z,56.60
2018-03-20T11:35:15.405Z,56.70
2018-03-20T11:37:43.128Z,55.90
2018-03-20T11:40:10.890Z,56.60
2018-03-20T11:42:38.415Z,55.90
2018-03-20T11:45:05.941Z,54.50
2018-03-20T11:47:33.423Z,54.50
2018-03-20T11:50:01.319Z,54.50
2018-03-20T11:52:28.822Z,54.50
2018-03-20T11:54:56.336Z,52.80
2018-03-20T11:57:23.821Z,54.00
2018-03-20T11:59:51.319Z,53.70
2018-03-20T12:02:19.205Z,53.20
2018-03-20T12:04:46.747Z,53.20
2018-03-20T12:07:14.211Z,53.00
2018-03-20T12:09:48.745Z,52.60
2018-03-20T12:12:16.272Z,52.60
2018-03-20T12:14:43.836Z,52.40
2018-03-20T12:17:11.693Z,50.90
2018-03-20T12:19:39.265Z,50.40
2018-03-20T12:22:07.196Z,51.70
2018-03-20T12:24:34.876Z,51.70
2018-03-20T12:27:02.436Z,51.50
2018-03-20T12:29:29.981Z,51.60
2018-03-20T12:31:57.589Z,51.60
2018-03-20T12:34:25.128Z,51.00
2018-03-20T12:36:53.041Z,51.40
2018-03-20T12:39:20.563Z,51.40
2018-03-20T12:41:48.145Z,50.20
2018-03-20T12:44:15.767Z,50.00
2018-03-20T12:46:43.732Z,50.70
2018-03-20T12:49:11.226Z,50.70
2018-03-20T12:51:38.771Z,50.80
2018-03-20T12:54:06.275Z,50.50
2018-03-20T12:56:33.772Z,51.00
2018-03-20T12:59:01.934Z,50.50
2018-03-20T13:01:29.473Z,50.50
2018-03-20T13:03:56.980Z,50.60
2018-03-20T13:06:24.487Z,50.10
2018-03-20T13:08:51.995Z,49.50
2018-03-20T13:11:19.565Z,49.40
2018-03-20T13:13:47.094Z,49.40
2018-03-20T13:16:15.011Z,48.90
2018-03-20T13:18:42.512Z,48.80
2018-03-20T13:21:10.031Z,48.90
2018-03-20T13:23:37.529Z,49.60
2018-03-20T13:26:05.411Z,47.90
2018-03-20T13:28:32.919Z,47.90
2018-03-20T13:31:00.399Z,47.70
2018-03-20T13:33:27.903Z,47.60
2018-03-20T13:35:55.387Z,48.20
2018-03-20T13:38:22.877Z,48.80
2018-03-20T13:40:50.800Z,47.60
2018-03-20T13:43:18.360Z,47.60
2018-03-20T13:45:45.955Z,48.10
2018-03-20T13:48:13.547Z,47.90
2018-03-20T13:50:41.107Z,47.20
2018-03-20T13:53:08.612Z,47.30
2018-03-20T13:55:36.495Z,46.20
2018-03-20T13:58:04.075Z,45.90
2018-03-20T14:00:31.986Z,46.70
2018-03-20T14:02:59.540Z,46.70
2018-03-20T14:05:27.433Z,45.60
2018-03-20T14:07:55.176Z,45.70
2018-03-20T14:10:22.793Z,45.00
2018-03-20T14:12:50.325Z,43.90
2018-03-20T14:15:18.215Z,43.50
2018-03-20T14:17:46.111Z,43.10
2018-03-20T14:20:13.832Z,43.00
2018-03-20T14:22:41.321Z,44.00
2018-03-20T14:25:08.819Z,44.60
2018-03-20T14:27:36.312Z,44.80
2018-03-20T14:30:04.194Z,45.00
2018-03-20T14:32:31.683Z,45.00
2018-03-20T14:34:59.192Z,44.90
2018-03-20T14:37:26.699Z,44.30
2018-03-20T14:39:54.201Z,44.50
2018-03-20T14:42:22.114Z,44.00
2018-03-20T14:44:49.605Z,44.00
2018-03-20T14:47:17.102Z,44.20
2018-03-20T14:49:44.617Z,43.80
2018-03-20T14:52:12.148Z,43.20
2018-03-20T14:54:39.647Z,42.80
2018-03-20T14:57:07.535Z,43.60
2018-03-20T14:59:35.079Z,43.60
2018-03-20T15:02:04.038Z,45.30
2018-03-20T15:04:31.575Z,45.30
2018-03-20T15:06:59.163Z,45.10
2018-03-20T15:09:26.711Z,44.50
2018-03-20T15:11:54.199Z,44.90
2018-03-20T15:14:22.327Z,46.00
2018-03-20T15:16:50.129Z,46.00
2018-03-20T15:19:17.884Z,45.60
2018-03-20T15:21:45.882Z,45.10
2018-03-20T15:24:13.412Z,45.10
2018-03-20T15:26:41.046Z,44.70
2018-03-20T15:29:08.583Z,44.50
2018-03-20T15:31:36.082Z,43.30
2018-03-20T15:34:03.574Z,43.20
2018-03-20T15:36:31.095Z,43.50
2018-03-20T15:38:58.632Z,43.90
2018-03-20T15:41:26.115Z,44.30
2018-03-20T15:43:53.621Z,44.70
2018-03-20T15:46:21.131Z,44.50
2018-03-20T15:48:48.735Z,44.10
2018-03-20T15:51:16.248Z,44.30
2018-03-20T15:53:43.756Z,43.90
2018-03-20T15:56:11.261Z,43.90
2018-03-20T15:58:38.760Z,43.90
2018-03-20T16:01:06.255Z,44.00
2018-03-20T16:03:33.806Z,44.60
2018-03-20T16:06:01.329Z,44.40
2018-03-20T16:08:28.832Z,44.40
2018-03-20T16:10:56.364Z,44.70
2018-03-20T16:13:23.855Z,45.60
2018-03-20T16:15:51.356Z,45.90
2018-03-20T16:18:18.858Z,45.70
2018-03-20T16:20:46.370Z,45.80
2018-03-20T16:23:14.256Z,45.80
2018-03-20T16:25:41.755Z,45.80
2018-03-20T16:28:09.260Z,46.20
2018-03-20T16:30:36.809Z,46.20
2018-03-20T16:33:04.310Z,46.50
2018-03-20T16:35:31.851Z,46.60
2018-03-20T16:37:59.346Z,46.30
2018-03-20T16:40:26.828Z,46.40
2018-03-20T16:42:54.827Z,46.50
2018-03-20T16:45:22.328Z,46.50
2018-03-20T16:47:49.815Z,47.10
2018-03-20T16:50:18.227Z,47.50
2018-03-20T16:52:45.755Z,47.50
2018-03-20T16:55:13.263Z,48.30
2018-03-20T16:57:40.806Z,48.50
2018-03-20T17:00:08.331Z,49.20
2018-03-20T17:02:36.223Z,50.80
2018-03-20T17:05:03.728Z,50.80
2018-03-20T17:07:31.219Z,51.30
2018-03-20T17:09:58.781Z,51.80
2018-03-20T17:12:26.316Z,51.70
2018-03-20T17:14:54.216Z,53.10
2018-03-20T17:17:21.781Z,53.10
2018-03-20T17:19:49.308Z,53.40
2018-03-20T17:22:16.829Z,53.90
2018-03-20T17:24:44.336Z,54.40
2018-03-20T17:27:11.826Z,55.40
2018-03-20T17:29:39.347Z,55.90
2018-03-20T17:32:06.889Z,56.30
2018-03-20T17:34:34.821Z,57.30
2018-03-20T17:37:02.306Z,57.30
2018-03-20T17:39:29.839Z,57.50
2018-03-20T17:41:57.334Z,57.60
2018-03-20T17:44:25.263Z,58.40
2018-03-20T17:46:52.945Z,58.40
2018-03-20T17:49:20.435Z,58.60
2018-03-20T17:51:47.993Z,58.60
2018-03-20T17:54:15.502Z,59.10
2018-03-20T17:56:43.007Z,59.20
2018-03-20T17:59:10.505Z,59.80
2018-03-20T18:01:38.000Z,59.90
2018-03-20T18:04:05.960Z,60.60
2018-03-20T18:06:33.510Z,60.60
2018-03-20T18:09:00.962Z,60.60
2018-03-20T18:11:30.438Z,61.10
2018-03-20T18:13:57.992Z,60.80
2018-03-20T18:16:25.494Z,61.40
2018-03-20T18:18:52.997Z,61.60
2018-03-20T18:21:20.540Z,61.90
2018-03-20T18:23:49.046Z,62.20
2018-03-20T18:26:16.647Z,62.60
2018-03-20T18:28:44.574Z,63.20
2018-03-20T18:31:12.072Z,63.20
2018-03-20T18:33:39.771Z,63.30
2018-03-20T18:36:07.279Z,63.60
2018-03-20T18:38:35.986Z,63.60
2018-03-20T18:41:05.715Z,64.30
2018-03-20T18:43:33.384Z,64.30
2018-03-20T18:46:01.019Z,64.30
2018-03-20T18:48:28.924Z,64.60
2018-03-20T18:50:56.424Z,64.70
2018-03-20T18:53:23.998Z,64.90
2018-03-20T18:55:51.892Z,65.40
2018-03-20T18:58:19.499Z,65.40
2018-03-20T19:00:47.126Z,65.80
2018-03-20T19:03:14.698Z,66.10
2018-03-20T19:05:42.219Z,66.10
2018-03-20T19:08:09.744Z,66.40
2018-03-20T19:10:37.236Z,66.80
2018-03-20T19:13:04.759Z,67.40
2018-03-20T19:15:32.284Z,68.20
2018-03-20T19:17:59.808Z,69.10
2018-03-20T19:20:27.304Z,69.70
2018-03-20T19:22:54.854Z,70.50
2018-03-20T19:25:22.345Z,71.40
2018-03-20T19:27:49.897Z,72.00
2018-03-20T19:30:17.403Z,72.40
2018-03-20T19:32:44.909Z,72.60
2018-03-20T19:35:12.403Z,73.00
2018-03-20T19:37:40.284Z,73.60
2018-03-20T19:40:07.786Z,73.60
2018-03-20T19:42:35.283Z,73.70
2018-03-20T19:45:02.798Z,74.10
2018-03-20T19:47:30.283Z,74.40
2018-03-20T19:49:58.235Z,74.90
2018-03-20T19:52:25.735Z,74.90
2018-03-20T19:54:53.272Z,75.10
2018-03-20T19:57:21.174Z,75.40
2018-03-20T19:59:48.656Z,75.40
2018-03-20T20:02:16.157Z,75.90
2018-03-20T20:04:44.043Z,76.40
2018-03-20T20:07:11.643Z,76.40
2018-03-20T20:09:39.203Z,76.70
2018-03-20T20:12:06.688Z,77.10
2018-03-20T20:14:34.576Z,77.50
2018-03-20T20:17:02.125Z,77.50
2018-03-20T20:19:29.610Z,78.00
2018-03-20T20:21:57.100Z,78.20
2018-03-20T20:24:24.609Z,78.30
2018-03-20T20:26:52.105Z,78.80
2018-03-20T20:29:19.599Z,79.10
2018-03-20T20:31:47.505Z,79.70
2018-03-20T20:34:15.755Z,79.70
2018-03-20T20:36:43.684Z,80.00
2018-03-20T20:39:11.179Z,80.00
2018-03-20T20:41:39.075Z,80.40
2018-03-20T20:44:06.563Z,80.40
2018-03-20T20:46:34.244Z,80.60
2018-03-20T20:49:01.772Z,81.00
2018-03-20T20:51:29.311Z,81.30
2018-03-20T20:53:56.799Z,81.50
2018-03-20T20:56:24.309Z,81.40
2018-03-20T20:58:51.887Z,81.60
2018-03-20T21:01:20.287Z,82.00
2018-03-20T21:03:47.809Z,81.90
2018-03-20T21:06:15.322Z,82.30
2018-03-20T21:08:42.827Z,82.50
2018-03-20T21:11:10.399Z,82.50
2018-03-20T21:13:37.904Z,83.10
2018-03-20T21:16:05.865Z,83.00
2018-03-20T21:18:34.230Z,83.00
2018-03-20T21:21:01.802Z,83.30
2018-03-20T21:23:29.300Z,83.40
2018-03-20T21:25:56.792Z,83.80
2018-03-20T21:28:24.301Z,83.90
2018-03-20T21:30:51.797Z,84.20
2018-03-20T21:33:19.301Z,84.40
2018-03-20T21:35:47.189Z,84.50
2018-03-20T21:38:14.692Z,84.50
2018-03-20T21:40:42.180Z,84.60
2018-03-20T21:43:10.063Z,85.30
2018-03-20T21:45:37.979Z,85.30
2018-03-20T21:48:05.486Z,85.30
2018-03-20T21:50:33.022Z,85.40
2018-03-20T21:53:00.527Z,85.00
2018-03-20T21:55:28.024Z,85.10
2018-03-20T21:57:55.542Z,85.50
2018-03-20T22:00:23.043Z,85.70
2018-03-20T22:02:50.569Z,85.60
2018-03-20T22:05:18.058Z,85.50
2018-03-20T22:07:45.596Z,85.70
2018-03-20T22:10:13.128Z,85.60
2018-03-20T22:12:40.654Z,86.00
2018-03-20T22:15:08.176Z,85.60
2018-03-20T22:17:35.660Z,86.10
2018-03-20T22:20:03.593Z,86.60
2018-03-20T22:22:31.144Z,86.60
2018-03-20T22:24:58.648Z,86.60
2018-03-20T22:27:26.559Z,87.20
2018-03-20T22:29:54.071Z,87.20
2018-03-20T22:32:21.967Z,87.90
2018-03-20T22:34:49.514Z,87.90
2018-03-20T22:37:17.027Z,87.90
2018-03-20T22:39:44.525Z,87.90
2018-03-20T22:42:12.413Z,88.10
2018-03-20T22:44:39.910Z,88.10
2018-03-20T22:47:07.411Z,88.00
2018-03-20T22:49:34.913Z,88.40
2018-03-20T22:52:02.462Z,88.10
2018-03-20T22:54:29.972Z,87.90
2018-03-20T22:56:57.463Z,88.50
2018-03-20T22:59:24.960Z,88.20
2018-03-20T23:01:52.442Z,88.10
2018-03-20T23:04:20.350Z,89.20
2018-03-20T23:06:47.843Z,89.20
2018-03-20T23:09:15.343Z,88.50
2018-03-20T23:11:42.884Z,88.70
2018-03-20T23:14:10.415Z,88.90
2018-03-20T23:16:37.921Z,88.60
2018-03-20T23:19:05.419Z,89.10
2018-03-20T23:21:32.927Z,89.40
2018-03-20T23:24:00.416Z,89.30
2018-03-20T23:26:27.903Z,89.60
2018-03-20T23:28:55.398Z,90.00
2018-03-20T23:31:22.887Z,90.10
2018-03-20T23:33:50.403Z,90.40
2018-03-20T23:36:18.297Z,90.60
2018-03-20T23:38:45.787Z,90.60
2018-03-20T23:41:13.287Z,90.70
2018-03-20T23:43:40.781Z,90.70
2018-03-20T23:46:08.282Z,90.70
2018-03-20T23:48:35.759Z,90.70
2018-03-20T23:51:03.681Z,90.40
2018-03-20T23:53:31.168Z,90.40
2018-03-20T23:55:59.054Z,91.70
2018-03-20T23:58:26.569Z,91.70
